KDRI

Beauregard Regional Airport

De Ridder, Louisiana, USA
METAR KDRI 280055Z AUTO 00000KT 10SM CLR 28/22 A2982 RMK AO2 T02750217
Observed Flight Rules
May-28 @ 00:55 UTC (24 minutes ago) Visual Flight Rules
Visibility Clouds
10 miles
  • Clear skies
Temperatures Readings
Current 28°C / 82°F
Dewpoint 22°C / 72°F
Humidity 70%
Altimeter 29.82" Hg
Pressure 1010 hPa
Elevation 63
METAR KDRI 280055Z AUTO 00000KT 10SM CLR 28/22 A2982 RMK AO2 T02750217
Observed Flight Rules
May-28 @ 00:55 UTC
(24 minutes ago)
VFR
Clouds
  • Clear skies
Temperature Dewpoint
28°C / 82°F 22°C / 72°F
Humidity Altimeter Pressure
70% 29.82" Hg 1010 hPa